Ru Kontio — OIRV — position and weather

sailwx.info

Track history (hours):
 
Tides and Currents Weather Stations Pressure Air Temp Water Temp Dewpoint Dewpoint Depression Visibility Wind Speed Wind Dir Waves Ship Positions

Ru Kontio

Last reported at 2014-Sep-19 16:33 UTC. Time now 2014-Sep-19 19:56 UTC.
Position N 60°10' E 024°58'.

Type: Other ship. MMSI: 230251000.

Date/timePositionNaut miles runAvg speedWind from/ knotsBaromVisibWave heightAir tempDewpointWater temp
2014-Sep-19 16:33N 60°10' E 024°58'0 0.0
2014-Sep-19 15:30N 60°10' E 024°58'0 0.0
2014-Sep-19 14:33N 60°10' E 024°58'0 0.0
2014-Sep-19 13:33N 60°10' E 024°58'0 0.0
2014-Sep-19 12:33N 60°10' E 024°58'0 0.0
2014-Sep-19 11:33N 60°10' E 024°58'0 0.0
2014-Sep-19 10:33N 60°10' E 024°58'0 0.0
2014-Sep-19 09:33N 60°10' E 024°58'0 0.0
2014-Sep-19 08:33N 60°10' E 024°58'0 0.0
2014-Sep-19 07:33N 60°10' E 024°58'0 0.0
2014-Sep-19 06:33N 60°10' E 024°58'0 0.0
2014-Sep-19 05:33N 60°10' E 024°58'0 0.0
2014-Sep-19 04:33N 60°10' E 024°58'0 0.0
2014-Sep-18 19:21N 60°10' E 024°58'0 0.0
2014-Sep-18 16:33N 60°10' E 024°58'0 0.0
2014-Sep-18 15:33N 60°10' E 024°58'0 0.0
2014-Sep-18 14:33N 60°10' E 024°58'0 0.0
2014-Sep-18 13:33N 60°10' E 024°58'0 0.0
2014-Sep-18 12:33N 60°10' E 024°58'0 0.0
2014-Sep-18 11:33N 60°10' E 024°58'0 0.0
2014-Sep-18 10:33N 60°10' E 024°58'0 0.0
2014-Sep-18 09:33N 60°10' E 024°58'0 0.0
2014-Sep-18 08:33N 60°10' E 024°58'0 0.0
2014-Sep-18 07:33N 60°10' E 024°58'0 0.0
2014-Sep-18 06:33N 60°10' E 024°58'0 0.0
2014-Sep-18 05:33N 60°10' E 024°58'0 0.0
2014-Sep-18 04:33N 60°10' E 024°58'0 0.0
2014-Sep-17 23:33N 60°10' E 024°58'0 0.0
2014-Sep-17 22:12N 60°10' E 024°58'0 0.0
2014-Sep-17 18:13N 60°10' E 024°58'3 4.2
2014-Sep-17 17:34N 60°07' E 024°59'9 8.7
2014-Sep-17 16:34N 59°59' E 025°06'2 1.8
2014-Sep-17 15:33N 59°60' E 025°02'1 1.1
2014-Sep-17 14:31N 59°59' E 025°00'2 1.7
2014-Sep-17 13:32N 59°60' E 025°03'8 8.3
2014-Sep-17 12:34N 59°59' E 025°19'8 7.5
2014-Sep-17 11:30N 59°59' E 025°03'7 7.1
2014-Sep-17 10:33N 59°59' E 025°17'3 0.9
2014-Sep-17 07:26N 59°58' E 025°11'6 6.0
2014-Sep-17 06:29N 60°01' E 025°01'910.1
2014-Sep-17 05:33N 60°10' E 024°59'0 0.2
2014-Sep-17 04:32N 60°10' E 024°58'0 0.0
2014-Sep-17 03:32N 60°10' E 024°58'0 0.0
2014-Sep-16 17:14N 60°10' E 024°58'0 0.0
2014-Sep-16 16:32N 60°10' E 024°58'0 0.0
2014-Sep-16 15:32N 60°10' E 024°58'0 0.0
2014-Sep-16 14:32N 60°10' E 024°58'2 2.3
2014-Sep-16 13:33N 60°08' E 024°59'9 7.9
2014-Sep-16 12:26N 59°59' E 025°03'1 1.2
2014-Sep-16 11:20N 59°60' E 025°01'1 0.6
2014-Sep-16 10:33N 59°59' E 025°00'1 0.6
2014-Sep-16 09:29N 59°59' E 024°59'1 0.8
2014-Sep-16 08:26N 60°00' E 024°59'1 0.7
2014-Sep-16 07:33N 60°01' E 024°60'0 0.4
2014-Sep-16 06:33N 60°01' E 024°59'7 6.6
2014-Sep-16 05:33N 60°07' E 024°59'3 3.0
2014-Sep-16 04:32N 60°10' E 024°58'0 0.0
2014-Sep-16 03:32N 60°10' E 024°58'0 0.0
2014-Sep-16 02:17N 60°10' E 024°58'0 0.0
2014-Sep-16 01:11N 60°10' E 024°58'0 0.0
2014-Sep-15 19:14N 60°10' E 024°58'0 0.0
2014-Sep-15 17:08N 60°10' E 024°58'0 0.0
2014-Sep-15 16:32N 60°10' E 024°58'0 0.0
2014-Sep-15 15:26N 60°10' E 024°58'0 0.0
2014-Sep-15 14:32N 60°10' E 024°58'0 0.0
2014-Sep-15 13:32N 60°10' E 024°58'0 0.0
2014-Sep-15 12:32N 60°10' E 024°58'0 0.0
2014-Sep-15 11:32N 60°10' E 024°58'0 0.0
2014-Sep-15 10:32N 60°10' E 024°58'0 0.0
2014-Sep-15 09:32N 60°10' E 024°58'0 0.0
2014-Sep-15 08:32N 60°10' E 024°58'0 0.0
2014-Sep-15 07:32N 60°10' E 024°58'0 0.0
2014-Sep-15 06:32N 60°10' E 024°58'0 0.0
2014-Sep-15 05:32N 60°10' E 024°58'0 0.0
2014-Sep-15 04:32N 60°10' E 024°58'0 0.0
2014-Sep-15 03:32N 60°10' E 024°58'0 0.0
2014-Sep-14 17:11N 60°10' E 024°58'0 0.0
2014-Sep-14 16:32N 60°10' E 024°58'0 0.0
2014-Sep-14 15:32N 60°10' E 024°58'0 0.0
2014-Sep-14 14:32N 60°10' E 024°58'0 0.0
2014-Sep-14 13:32N 60°10' E 024°58'0 0.0
2014-Sep-14 12:32N 60°10' E 024°58'0 0.0
2014-Sep-14 11:32N 60°10' E 024°58'0 0.0
2014-Sep-14 10:32N 60°10' E 024°58'0 0.0
2014-Sep-14 09:32N 60°10' E 024°58'0 0.0
2014-Sep-14 08:32N 60°10' E 024°58'0 0.0
2014-Sep-14 07:32N 60°10' E 024°58'0 0.0
2014-Sep-14 06:32N 60°10' E 024°58'0 0.0
2014-Sep-14 05:32N 60°10' E 024°58'0 0.0
2014-Sep-14 04:32N 60°10' E 024°58'0 0.0
2014-Sep-14 03:32N 60°10' E 024°58'0 0.0
2014-Sep-14 02:32N 60°10' E 024°58'0 0.0
2014-Sep-14 01:32N 60°10' E 024°58'0 0.0
2014-Sep-13 21:32N 60°10' E 024°58'0 0.0
2014-Sep-13 20:32N 60°10' E 024°58'0 0.0
2014-Sep-13 19:32N 60°10' E 024°58'0 0.0
2014-Sep-13 18:32N 60°10' E 024°58'0 0.0
2014-Sep-13 17:32N 60°10' E 024°58'0 0.0
2014-Sep-13 16:29N 60°10' E 024°58'0 0.0
2014-Sep-13 15:32N 60°10' E 024°58'0 0.0
2014-Sep-13 14:32N 60°10' E 024°58'0 0.0
2014-Sep-13 13:32N 60°10' E 024°58'0 0.0
2014-Sep-13 12:32N 60°10' E 024°58'0 0.0
2014-Sep-13 11:32N 60°10' E 024°58'0 0.0
2014-Sep-13 10:32N 60°10' E 024°58'0 0.0
2014-Sep-13 09:32N 60°10' E 024°58'0 0.0
2014-Sep-13 08:32N 60°10' E 024°58'0 0.0
2014-Sep-13 07:32N 60°10' E 024°58'0 0.0
2014-Sep-13 06:32N 60°10' E 024°58'0 0.0
2014-Sep-13 05:29N 60°10' E 024°58'0 0.0
2014-Sep-13 04:32N 60°10' E 024°58'0 0.0
2014-Sep-13 03:32N 60°10' E 024°58'0 0.0
2014-Sep-12 17:17N 60°10' E 024°58'0 0.0
2014-Sep-12 16:32N 60°10' E 024°58'0 0.0
2014-Sep-12 15:32N 60°10' E 024°58'0 0.0
2014-Sep-12 14:32N 60°10' E 024°58'0 0.0
2014-Sep-12 13:32N 60°10' E 024°58'0 0.0
2014-Sep-12 12:32N 60°10' E 024°58'0 0.0
2014-Sep-12 11:32N 60°10' E 024°58'0 0.0
2014-Sep-12 10:32N 60°10' E 024°58'0 0.0
2014-Sep-12 09:32N 60°10' E 024°58'0 0.0
2014-Sep-12 08:32N 60°10' E 024°58'0 0.0
2014-Sep-12 07:32N 60°10' E 024°58'0 0.0
2014-Sep-12 06:32N 60°10' E 024°58'0 0.0
2014-Sep-12 05:32N 60°10' E 024°58'0 0.0
2014-Sep-12 04:32N 60°10' E 024°58'0 0.0
2014-Sep-12 02:20N 60°10' E 024°58'0 0.0
2014-Sep-11 17:14N 60°10' E 024°58'0 0.0
2014-Sep-11 16:32N 60°10' E 024°58'0 0.0
2014-Sep-11 15:32N 60°10' E 024°58'0 0.0
2014-Sep-11 14:32N 60°10' E 024°58'0 0.0
2014-Sep-11 13:32N 60°10' E 024°58'0 0.0
2014-Sep-11 12:32N 60°10' E 024°58'0 0.0
2014-Sep-11 11:32N 60°10' E 024°58'0 0.0
2014-Sep-11 10:32N 60°10' E 024°58'0 0.0
2014-Sep-11 09:32N 60°10' E 024°58'0 0.0
2014-Sep-11 08:32N 60°10' E 024°58'0 0.0
2014-Sep-11 07:32N 60°10' E 024°58'0 0.0
2014-Sep-11 06:32N 60°10' E 024°58'0 0.0
2014-Sep-11 05:32N 60°10' E 024°58'0 0.0
2014-Sep-11 04:32N 60°10' E 024°58'0 0.0
2014-Sep-11 03:32N 60°10' E 024°58'0 0.0
2014-Sep-11 01:29N 60°10' E 024°58'0 0.0
2014-Sep-11 00:32N 60°10' E 024°58'0 0.0
2014-Sep-10 17:20N 60°10' E 024°58'0 0.0
2014-Sep-10 16:32N 60°10' E 024°58'0 0.0
2014-Sep-10 15:32N 60°10' E 024°58'0 0.0
2014-Sep-10 14:32N 60°10' E 024°58'0 0.0
2014-Sep-10 13:32N 60°10' E 024°58'0 0.0
2014-Sep-10 12:32N 60°10' E 024°58'0 0.0
2014-Sep-10 11:32N 60°10' E 024°58'0 0.0
2014-Sep-10 10:32N 60°10' E 024°58'0 0.0
2014-Sep-10 09:32N 60°10' E 024°58'0 0.0
2014-Sep-10 08:32N 60°10' E 024°58'0 0.0
2014-Sep-10 07:32N 60°10' E 024°58'0 0.0
2014-Sep-10 06:32N 60°10' E 024°58'0 0.0
2014-Sep-10 05:29N 60°10' E 024°58'0 0.0
2014-Sep-10 04:32N 60°10' E 024°58'0 0.0
2014-Sep-10 03:32N 60°10' E 024°58'0 0.0
2014-Sep-10 02:32N 60°10' E 024°58'0 0.0
2014-Sep-09 17:08N 60°10' E 024°58'  
Track history (hours):
 
Tides and Currents Weather Stations Pressure Air Temp Water Temp Dewpoint Dewpoint Depression Visibility Wind Speed Wind Dir Waves Ship Positions

Ru Kontio

Last reported at 2014-Sep-19 16:33 UTC. Time now 2014-Sep-19 19:56 UTC.
Position N 60°10' E 024°58'.

Type: Other ship. MMSI: 230251000.

Date/timePositionNaut miles runAvg speedWind from/ knotsBaromVisibWave heightAir tempDewpointWater temp
2014-Sep-19 16:33N 60°10' E 024°58'0 0.0
2014-Sep-19 15:30N 60°10' E 024°58'0 0.0
2014-Sep-19 14:33N 60°10' E 024°58'0 0.0
2014-Sep-19 13:33N 60°10' E 024°58'0 0.0
2014-Sep-19 12:33N 60°10' E 024°58'0 0.0
2014-Sep-19 11:33N 60°10' E 024°58'0 0.0
2014-Sep-19 10:33N 60°10' E 024°58'0 0.0
2014-Sep-19 09:33N 60°10' E 024°58'0 0.0
2014-Sep-19 08:33N 60°10' E 024°58'0 0.0
2014-Sep-19 07:33N 60°10' E 024°58'0 0.0
2014-Sep-19 06:33N 60°10' E 024°58'0 0.0
2014-Sep-19 05:33N 60°10' E 024°58'0 0.0
2014-Sep-19 04:33N 60°10' E 024°58'0 0.0
2014-Sep-18 19:21N 60°10' E 024°58'0 0.0
2014-Sep-18 16:33N 60°10' E 024°58'0 0.0
2014-Sep-18 15:33N 60°10' E 024°58'0 0.0
2014-Sep-18 14:33N 60°10' E 024°58'0 0.0
2014-Sep-18 13:33N 60°10' E 024°58'0 0.0
2014-Sep-18 12:33N 60°10' E 024°58'0 0.0
2014-Sep-18 11:33N 60°10' E 024°58'0 0.0
2014-Sep-18 10:33N 60°10' E 024°58'0 0.0
2014-Sep-18 09:33N 60°10' E 024°58'0 0.0
2014-Sep-18 08:33N 60°10' E 024°58'0 0.0
2014-Sep-18 07:33N 60°10' E 024°58'0 0.0
2014-Sep-18 06:33N 60°10' E 024°58'0 0.0
2014-Sep-18 05:33N 60°10' E 024°58'0 0.0
2014-Sep-18 04:33N 60°10' E 024°58'0 0.0
2014-Sep-17 23:33N 60°10' E 024°58'0 0.0
2014-Sep-17 22:12N 60°10' E 024°58'0 0.0
2014-Sep-17 18:13N 60°10' E 024°58'3 4.2
2014-Sep-17 17:34N 60°07' E 024°59'9 8.7
2014-Sep-17 16:34N 59°59' E 025°06'2 1.8
2014-Sep-17 15:33N 59°60' E 025°02'1 1.1
2014-Sep-17 14:31N 59°59' E 025°00'2 1.7
2014-Sep-17 13:32N 59°60' E 025°03'8 8.3
2014-Sep-17 12:34N 59°59' E 025°19'8 7.5
2014-Sep-17 11:30N 59°59' E 025°03'7 7.1
2014-Sep-17 10:33N 59°59' E 025°17'3 0.9
2014-Sep-17 07:26N 59°58' E 025°11'6 6.0
2014-Sep-17 06:29N 60°01' E 025°01'910.1
2014-Sep-17 05:33N 60°10' E 024°59'0 0.2
2014-Sep-17 04:32N 60°10' E 024°58'0 0.0
2014-Sep-17 03:32N 60°10' E 024°58'0 0.0
2014-Sep-16 17:14N 60°10' E 024°58'0 0.0
2014-Sep-16 16:32N 60°10' E 024°58'0 0.0
2014-Sep-16 15:32N 60°10' E 024°58'0 0.0
2014-Sep-16 14:32N 60°10' E 024°58'2 2.3
2014-Sep-16 13:33N 60°08' E 024°59'9 7.9
2014-Sep-16 12:26N 59°59' E 025°03'1 1.2
2014-Sep-16 11:20N 59°60' E 025°01'1 0.6
2014-Sep-16 10:33N 59°59' E 025°00'1 0.6
2014-Sep-16 09:29N 59°59' E 024°59'1 0.8
2014-Sep-16 08:26N 60°00' E 024°59'1 0.7
2014-Sep-16 07:33N 60°01' E 024°60'0 0.4
2014-Sep-16 06:33N 60°01' E 024°59'7 6.6
2014-Sep-16 05:33N 60°07' E 024°59'3 3.0
2014-Sep-16 04:32N 60°10' E 024°58'0 0.0
2014-Sep-16 03:32N 60°10' E 024°58'0 0.0
2014-Sep-16 02:17N 60°10' E 024°58'0 0.0
2014-Sep-16 01:11N 60°10' E 024°58'0 0.0
2014-Sep-15 19:14N 60°10' E 024°58'0 0.0
2014-Sep-15 17:08N 60°10' E 024°58'0 0.0
2014-Sep-15 16:32N 60°10' E 024°58'0 0.0
2014-Sep-15 15:26N 60°10' E 024°58'0 0.0
2014-Sep-15 14:32N 60°10' E 024°58'0 0.0
2014-Sep-15 13:32N 60°10' E 024°58'0 0.0
2014-Sep-15 12:32N 60°10' E 024°58'0 0.0
2014-Sep-15 11:32N 60°10' E 024°58'0 0.0
2014-Sep-15 10:32N 60°10' E 024°58'0 0.0
2014-Sep-15 09:32N 60°10' E 024°58'0 0.0
2014-Sep-15 08:32N 60°10' E 024°58'0 0.0
2014-Sep-15 07:32N 60°10' E 024°58'0 0.0
2014-Sep-15 06:32N 60°10' E 024°58'0 0.0
2014-Sep-15 05:32N 60°10' E 024°58'0 0.0
2014-Sep-15 04:32N 60°10' E 024°58'0 0.0
2014-Sep-15 03:32N 60°10' E 024°58'0 0.0
2014-Sep-14 17:11N 60°10' E 024°58'0 0.0
2014-Sep-14 16:32N 60°10' E 024°58'0 0.0
2014-Sep-14 15:32N 60°10' E 024°58'0 0.0
2014-Sep-14 14:32N 60°10' E 024°58'0 0.0
2014-Sep-14 13:32N 60°10' E 024°58'0 0.0
2014-Sep-14 12:32N 60°10' E 024°58'0 0.0
2014-Sep-14 11:32N 60°10' E 024°58'0 0.0
2014-Sep-14 10:32N 60°10' E 024°58'0 0.0
2014-Sep-14 09:32N 60°10' E 024°58'0 0.0
2014-Sep-14 08:32N 60°10' E 024°58'0 0.0
2014-Sep-14 07:32N 60°10' E 024°58'0 0.0
2014-Sep-14 06:32N 60°10' E 024°58'0 0.0
2014-Sep-14 05:32N 60°10' E 024°58'0 0.0
2014-Sep-14 04:32N 60°10' E 024°58'0 0.0
2014-Sep-14 03:32N 60°10' E 024°58'0 0.0
2014-Sep-14 02:32N 60°10' E 024°58'0 0.0
2014-Sep-14 01:32N 60°10' E 024°58'0 0.0
2014-Sep-13 21:32N 60°10' E 024°58'0 0.0
2014-Sep-13 20:32N 60°10' E 024°58'0 0.0
2014-Sep-13 19:32N 60°10' E 024°58'0 0.0
2014-Sep-13 18:32N 60°10' E 024°58'0 0.0
2014-Sep-13 17:32N 60°10' E 024°58'0 0.0
2014-Sep-13 16:29N 60°10' E 024°58'0 0.0
2014-Sep-13 15:32N 60°10' E 024°58'0 0.0
2014-Sep-13 14:32N 60°10' E 024°58'0 0.0
2014-Sep-13 13:32N 60°10' E 024°58'0 0.0
2014-Sep-13 12:32N 60°10' E 024°58'0 0.0
2014-Sep-13 11:32N 60°10' E 024°58'0 0.0
2014-Sep-13 10:32N 60°10' E 024°58'0 0.0
2014-Sep-13 09:32N 60°10' E 024°58'0 0.0
2014-Sep-13 08:32N 60°10' E 024°58'0 0.0
2014-Sep-13 07:32N 60°10' E 024°58'0 0.0
2014-Sep-13 06:32N 60°10' E 024°58'0 0.0
2014-Sep-13 05:29N 60°10' E 024°58'0 0.0
2014-Sep-13 04:32N 60°10' E 024°58'0 0.0
2014-Sep-13 03:32N 60°10' E 024°58'0 0.0
2014-Sep-12 17:17N 60°10' E 024°58'0 0.0
2014-Sep-12 16:32N 60°10' E 024°58'0 0.0
2014-Sep-12 15:32N 60°10' E 024°58'0 0.0
2014-Sep-12 14:32N 60°10' E 024°58'0 0.0
2014-Sep-12 13:32N 60°10' E 024°58'0 0.0
2014-Sep-12 12:32N 60°10' E 024°58'0 0.0
2014-Sep-12 11:32N 60°10' E 024°58'0 0.0
2014-Sep-12 10:32N 60°10' E 024°58'0 0.0
2014-Sep-12 09:32N 60°10' E 024°58'0 0.0
2014-Sep-12 08:32N 60°10' E 024°58'0 0.0
2014-Sep-12 07:32N 60°10' E 024°58'0 0.0
2014-Sep-12 06:32N 60°10' E 024°58'0 0.0
2014-Sep-12 05:32N 60°10' E 024°58'0 0.0
2014-Sep-12 04:32N 60°10' E 024°58'0 0.0
2014-Sep-12 02:20N 60°10' E 024°58'0 0.0
2014-Sep-11 17:14N 60°10' E 024°58'0 0.0
2014-Sep-11 16:32N 60°10' E 024°58'0 0.0
2014-Sep-11 15:32N 60°10' E 024°58'0 0.0
2014-Sep-11 14:32N 60°10' E 024°58'0 0.0
2014-Sep-11 13:32N 60°10' E 024°58'0 0.0
2014-Sep-11 12:32N 60°10' E 024°58'0 0.0
2014-Sep-11 11:32N 60°10' E 024°58'0 0.0
2014-Sep-11 10:32N 60°10' E 024°58'0 0.0
2014-Sep-11 09:32N 60°10' E 024°58'0 0.0
2014-Sep-11 08:32N 60°10' E 024°58'0 0.0
2014-Sep-11 07:32N 60°10' E 024°58'0 0.0
2014-Sep-11 06:32N 60°10' E 024°58'0 0.0
2014-Sep-11 05:32N 60°10' E 024°58'0 0.0
2014-Sep-11 04:32N 60°10' E 024°58'0 0.0
2014-Sep-11 03:32N 60°10' E 024°58'0 0.0
2014-Sep-11 01:29N 60°10' E 024°58'0 0.0
2014-Sep-11 00:32N 60°10' E 024°58'0 0.0
2014-Sep-10 17:20N 60°10' E 024°58'0 0.0
2014-Sep-10 16:32N 60°10' E 024°58'0 0.0
2014-Sep-10 15:32N 60°10' E 024°58'0 0.0
2014-Sep-10 14:32N 60°10' E 024°58'0 0.0
2014-Sep-10 13:32N 60°10' E 024°58'0 0.0
2014-Sep-10 12:32N 60°10' E 024°58'0 0.0
2014-Sep-10 11:32N 60°10' E 024°58'0 0.0
2014-Sep-10 10:32N 60°10' E 024°58'0 0.0
2014-Sep-10 09:32N 60°10' E 024°58'0 0.0
2014-Sep-10 08:32N 60°10' E 024°58'0 0.0
2014-Sep-10 07:32N 60°10' E 024°58'0 0.0
2014-Sep-10 06:32N 60°10' E 024°58'0 0.0
2014-Sep-10 05:29N 60°10' E 024°58'0 0.0
2014-Sep-10 04:32N 60°10' E 024°58'0 0.0
2014-Sep-10 03:32N 60°10' E 024°58'0 0.0
2014-Sep-10 02:32N 60°10' E 024°58'0 0.0
2014-Sep-09 17:08N 60°10' E 024°58'  

Dump ship's entire track history